createdAt,value
2023-05-18T00:00:19.752Z,7.50
2023-05-18T00:02:49.745Z,7.50
2023-05-18T00:05:19.753Z,7.50
2023-05-18T00:07:50.690Z,7.50
2023-05-18T00:10:20.692Z,7.40
2023-05-18T00:12:50.439Z,7.40
2023-05-18T00:15:20.104Z,7.30
2023-05-18T00:17:50.589Z,7.30
2023-05-18T00:20:22.026Z,7.30
2023-05-18T00:22:53.196Z,7.30
2023-05-18T00:25:23.112Z,7.20
2023-05-18T00:27:52.981Z,7.20
2023-05-18T00:30:24.610Z,7.20
2023-05-18T00:32:54.547Z,7.10
2023-05-18T00:35:24.366Z,7.10
2023-05-18T00:37:55.553Z,7.10
2023-05-18T00:40:26.924Z,7.00
2023-05-18T00:42:56.819Z,7.10
2023-05-18T00:45:26.695Z,7.10
2023-05-18T00:47:56.550Z,7.10
2023-05-18T00:50:26.348Z,7.00
2023-05-18T00:52:57.531Z,7.00
2023-05-18T00:55:28.717Z,6.90
2023-05-18T00:58:02.415Z,6.90
2023-05-18T01:00:33.800Z,6.80
2023-05-18T01:03:04.038Z,6.70
2023-05-18T01:05:34.170Z,6.70
2023-05-18T01:08:05.401Z,6.70
2023-05-18T01:10:38.709Z,6.70
2023-05-18T01:13:14.051Z,6.60
2023-05-18T01:15:45.501Z,6.50
2023-05-18T01:18:21.788Z,6.50
2023-05-18T01:20:58.600Z,6.50
2023-05-18T01:23:54.916Z,6.50
2023-05-18T01:26:30.141Z,6.50
2023-05-18T01:29:03.917Z,6.40
2023-05-18T01:31:34.560Z,6.40
2023-05-18T01:34:04.490Z,6.40
2023-05-18T01:36:34.506Z,6.30
2023-05-18T01:39:04.609Z,6.30
2023-05-18T01:41:39.435Z,6.30
2023-05-18T01:44:15.641Z,6.20
2023-05-18T01:46:54.316Z,6.20
2023-05-18T01:49:28.682Z,6.30
2023-05-18T01:51:59.601Z,6.30
2023-05-18T01:54:31.796Z,6.30
2023-05-18T01:57:04.593Z,6.20
2023-05-18T01:59:34.503Z,6.20
2023-05-18T02:02:04.607Z,6.10
2023-05-18T02:04:35.169Z,6.20
2023-05-18T02:07:04.944Z,6.10
2023-05-18T02:09:34.728Z,6.10
2023-05-18T02:12:06.034Z,6.10
2023-05-18T02:14:36.046Z,6.10
2023-05-18T02:17:07.148Z,6.00
2023-05-18T02:19:38.314Z,6.00
2023-05-18T02:22:08.662Z,6.00
2023-05-18T02:24:38.526Z,5.90
2023-05-18T02:27:10.042Z,5.90
2023-05-18T02:29:39.926Z,5.80
2023-05-18T02:32:08.808Z,5.80
2023-05-18T02:34:42.016Z,5.80
2023-05-18T02:37:13.424Z,5.80
2023-05-18T02:39:44.630Z,5.70
2023-05-18T02:42:15.744Z,5.70
2023-05-18T02:44:45.571Z,5.70
2023-05-18T02:47:15.398Z,5.60
2023-05-18T02:49:44.983Z,5.60
2023-05-18T02:52:14.740Z,5.50
2023-05-18T02:54:44.544Z,5.60
2023-05-18T02:57:16.163Z,5.60
2023-05-18T02:59:45.721Z,5.50
2023-05-18T03:02:16.207Z,5.50
2023-05-18T03:04:49.261Z,5.50
2023-05-18T03:07:19.234Z,5.40
2023-05-18T03:09:49.005Z,5.40
2023-05-18T03:12:20.120Z,5.50
2023-05-18T03:14:49.899Z,5.40
2023-05-18T03:17:19.820Z,5.40
2023-05-18T03:19:49.648Z,5.30
2023-05-18T03:22:19.519Z,5.30
2023-05-18T03:24:51.236Z,5.20
2023-05-18T03:27:25.416Z,5.30
2023-05-18T03:29:56.485Z,5.30
2023-05-18T03:32:28.294Z,5.30
2023-05-18T03:35:00.913Z,5.30
2023-05-18T03:37:30.462Z,5.30
2023-05-18T03:40:10.208Z,5.30
2023-05-18T03:42:41.984Z,5.30
2023-05-18T03:45:12.515Z,5.30
2023-05-18T03:47:42.586Z,5.30
2023-05-18T03:50:11.577Z,5.20
2023-05-18T03:52:41.629Z,5.30
2023-05-18T03:55:13.573Z,5.30
2023-05-18T03:57:44.468Z,5.20
2023-05-18T04:00:15.628Z,5.20
2023-05-18T04:02:45.571Z,5.30
2023-05-18T04:05:15.302Z,5.30
2023-05-18T04:07:46.236Z,5.20
2023-05-18T04:10:17.419Z,5.30
2023-05-18T04:12:48.765Z,5.40
2023-05-18T04:15:18.590Z,5.40
2023-05-18T04:17:50.041Z,5.40
2023-05-18T04:20:19.709Z,5.30
2023-05-18T04:22:52.374Z,5.20
2023-05-18T04:25:22.189Z,5.30
2023-05-18T04:27:54.493Z,5.30
2023-05-18T04:30:24.499Z,5.20
2023-05-18T04:32:54.726Z,5.30
2023-05-18T04:35:24.760Z,5.30
2023-05-18T04:37:54.624Z,5.30
2023-05-18T04:40:25.318Z,5.40
2023-05-18T04:42:56.309Z,5.50
2023-05-18T04:45:26.309Z,5.50
2023-05-18T04:47:56.360Z,5.40
2023-05-18T04:50:26.166Z,5.40
2023-05-18T04:52:58.383Z,5.50
2023-05-18T04:55:29.207Z,5.60
2023-05-18T04:58:01.385Z,5.80
2023-05-18T05:00:31.814Z,6.30
2023-05-18T05:03:01.784Z,6.80
2023-05-18T05:05:32.658Z,7.50
2023-05-18T05:08:04.725Z,8.00
2023-05-18T05:10:34.318Z,8.60
2023-05-18T05:13:05.545Z,9.30
2023-05-18T05:15:36.656Z,9.50
2023-05-18T05:18:06.509Z,9.70
2023-05-18T05:20:36.194Z,9.00
2023-05-18T05:23:06.324Z,9.60
2023-05-18T05:25:36.000Z,9.90
2023-05-18T05:28:07.122Z,10.40
2023-05-18T05:30:36.950Z,10.50
2023-05-18T05:33:06.719Z,10.10
2023-05-18T05:35:36.752Z,9.70
2023-05-18T05:38:06.985Z,10.20
2023-05-18T05:40:36.570Z,9.90
2023-05-18T05:43:07.613Z,10.60
2023-05-18T05:45:37.500Z,9.90
2023-05-18T05:48:07.351Z,9.80
2023-05-18T05:50:36.992Z,10.50
2023-05-18T05:53:06.794Z,10.00
2023-05-18T05:55:41.020Z,10.40
2023-05-18T05:58:12.066Z,10.70
2023-05-18T06:00:43.167Z,10.60
2023-05-18T06:03:13.124Z,10.20
2023-05-18T06:05:43.366Z,10.40
2023-05-18T06:08:13.185Z,10.30
2023-05-18T06:10:42.980Z,10.10
2023-05-18T06:13:13.927Z,10.10
2023-05-18T06:15:43.735Z,10.90
2023-05-18T06:18:13.841Z,10.60
2023-05-18T06:20:43.776Z,10.70
2023-05-18T06:23:13.587Z,10.70
2023-05-18T06:25:44.810Z,11.10
2023-05-18T06:28:16.076Z,11.40
2023-05-18T06:30:46.162Z,11.30
2023-05-18T06:33:16.067Z,11.40
2023-05-18T06:35:45.997Z,11.30
2023-05-18T06:38:15.837Z,11.90
2023-05-18T06:40:46.003Z,12.20
2023-05-18T06:43:16.929Z,12.20
2023-05-18T06:45:46.879Z,12.20
2023-05-18T06:48:16.524Z,12.20
2023-05-18T06:50:46.275Z,11.70
2023-05-18T06:53:16.140Z,11.60
2023-05-18T06:55:45.998Z,11.60
2023-05-18T06:58:16.933Z,11.60
2023-05-18T07:00:46.762Z,11.40
2023-05-18T07:03:16.640Z,11.10
2023-05-18T07:05:46.320Z,11.20
2023-05-18T07:08:16.215Z,11.30
2023-05-18T07:10:46.382Z,11.60
2023-05-18T07:13:17.658Z,11.50
2023-05-18T07:15:47.272Z,11.60
2023-05-18T07:18:17.146Z,11.20
2023-05-18T07:20:47.052Z,11.30
2023-05-18T07:23:16.917Z,11.70
2023-05-18T07:25:46.832Z,12.00
2023-05-18T07:28:17.754Z,12.30
2023-05-18T07:30:47.615Z,12.50
2023-05-18T07:33:17.522Z,12.80
2023-05-18T07:35:47.154Z,12.70
2023-05-18T07:38:17.070Z,13.10
2023-05-18T07:40:46.871Z,12.90
2023-05-18T07:43:18.069Z,12.80
2023-05-18T07:45:47.944Z,12.90
2023-05-18T07:48:18.302Z,13.20
2023-05-18T07:50:47.845Z,13.30
2023-05-18T07:53:17.765Z,13.20
2023-05-18T07:55:47.813Z,13.50
2023-05-18T07:58:19.660Z,13.60
2023-05-18T08:00:49.522Z,14.00
2023-05-18T08:03:19.624Z,14.30
2023-05-18T08:05:49.257Z,14.40
2023-05-18T08:08:19.079Z,14.50
2023-05-18T08:10:48.939Z,14.70
2023-05-18T08:13:20.392Z,14.70
2023-05-18T08:15:56.327Z,14.80
2023-05-18T08:18:29.407Z,15.10
2023-05-18T08:21:00.388Z,14.90
2023-05-18T08:23:29.905Z,14.80
2023-05-18T08:26:00.140Z,15.30
2023-05-18T08:28:31.377Z,15.50
2023-05-18T08:31:01.036Z,15.40
2023-05-18T08:33:32.334Z,15.00
2023-05-18T08:36:02.199Z,15.40
2023-05-18T08:38:32.793Z,15.40
2023-05-18T08:41:09.232Z,15.30
2023-05-18T08:43:43.384Z,15.40
2023-05-18T08:46:20.975Z,15.70
2023-05-18T08:48:52.737Z,15.80
2023-05-18T08:51:23.558Z,16.20
2023-05-18T08:53:55.673Z,16.50
2023-05-18T08:56:27.026Z,16.70
2023-05-18T08:59:00.064Z,17.00
2023-05-18T09:01:31.269Z,16.50
2023-05-18T09:04:01.800Z,16.40
2023-05-18T09:06:34.245Z,16.70
2023-05-18T09:09:06.520Z,17.00
2023-05-18T09:11:37.009Z,17.20
2023-05-18T09:14:08.345Z,16.80
2023-05-18T09:16:38.306Z,17.00
2023-05-18T09:19:07.465Z,16.90
2023-05-18T09:21:37.384Z,16.70
2023-05-18T09:24:08.686Z,16.60
2023-05-18T09:26:38.680Z,17.00
2023-05-18T09:29:20.282Z,16.90
2023-05-18T09:31:50.980Z,17.10
2023-05-18T09:34:21.590Z,17.50
2023-05-18T09:36:52.907Z,17.70
2023-05-18T09:39:22.727Z,17.20
2023-05-18T09:41:58.226Z,17.40
2023-05-18T09:44:35.337Z,17.40
2023-05-18T09:47:08.688Z,17.40
2023-05-18T09:49:38.724Z,17.60
2023-05-18T09:52:10.854Z,17.10
2023-05-18T09:54:41.113Z,17.20
2023-05-18T09:57:11.655Z,17.80
2023-05-18T09:59:42.722Z,18.20
2023-05-18T10:02:15.464Z,18.50
2023-05-18T10:04:46.132Z,18.50
2023-05-18T10:07:17.220Z,18.90
2023-05-18T10:10:01.452Z,18.20
2023-05-18T10:12:31.418Z,18.40
2023-05-18T10:15:03.173Z,18.30
2023-05-18T10:17:37.760Z,18.10
2023-05-18T10:20:09.012Z,18.40
2023-05-18T10:22:39.554Z,18.70
2023-05-18T10:25:12.308Z,18.50
2023-05-18T10:27:42.854Z,18.30
2023-05-18T10:30:16.416Z,17.80
2023-05-18T10:32:46.996Z,18.30
2023-05-18T10:35:17.226Z,18.00
2023-05-18T10:37:48.891Z,18.40
2023-05-18T10:40:20.711Z,19.00
2023-05-18T10:42:53.077Z,19.30
2023-05-18T10:45:25.498Z,19.50
2023-05-18T10:47:56.155Z,18.90
2023-05-18T10:50:26.503Z,18.50
2023-05-18T10:52:56.908Z,18.90
2023-05-18T10:55:27.794Z,19.20
2023-05-18T10:58:04.646Z,19.80
2023-05-18T11:00:38.163Z,19.50
2023-05-18T11:03:09.424Z,18.70
2023-05-18T11:05:40.043Z,19.60
2023-05-18T11:08:10.414Z,19.80
2023-05-18T11:10:47.045Z,19.60
2023-05-18T11:13:17.775Z,19.90
2023-05-18T11:16:09.793Z,20.10
2023-05-18T11:18:41.058Z,19.90
2023-05-18T11:21:32.540Z,19.70
2023-05-18T11:24:19.904Z,19.90
2023-05-18T11:26:50.796Z,20.40
2023-05-18T11:29:22.536Z,20.60
2023-05-18T11:31:57.609Z,20.80
2023-05-18T11:34:42.186Z,20.40
2023-05-18T11:37:12.506Z,20.50
2023-05-18T11:40:00.313Z,20.40
2023-05-18T11:42:35.526Z,20.40
2023-05-18T11:45:12.554Z,20.60
2023-05-18T11:47:43.967Z,20.50
2023-05-18T11:50:14.829Z,20.20
2023-05-18T11:52:53.200Z,19.70
2023-05-18T11:55:23.651Z,19.70
2023-05-18T11:57:54.746Z,19.50
2023-05-18T12:00:25.073Z,19.20
2023-05-18T12:03:02.238Z,19.70
2023-05-18T12:05:34.311Z,20.00
2023-05-18T12:08:04.966Z,19.30
2023-05-18T12:10:36.708Z,19.20
2023-05-18T12:13:06.880Z,19.30
2023-05-18T12:15:37.570Z,19.40
2023-05-18T12:18:08.857Z,19.90
2023-05-18T12:20:42.127Z,20.30
2023-05-18T12:23:12.010Z,20.50
2023-05-18T12:25:42.320Z,20.30
2023-05-18T12:28:11.934Z,19.90
2023-05-18T12:30:44.022Z,20.30
2023-05-18T12:33:15.448Z,20.60
2023-05-18T12:35:45.648Z,20.00
2023-05-18T12:38:18.134Z,20.50
2023-05-18T12:40:48.898Z,20.50
2023-05-18T12:43:18.844Z,20.80
2023-05-18T12:45:48.852Z,20.40
2023-05-18T12:48:20.960Z,20.60
2023-05-18T12:50:51.397Z,20.30
2023-05-18T12:53:21.300Z,20.10
2023-05-18T12:55:59.578Z,20.00
2023-05-18T12:58:27.565Z,20.60
2023-05-18T13:00:57.353Z,20.80
2023-05-18T13:03:33.792Z,20.40
2023-05-18T13:06:07.941Z,19.90
2023-05-18T13:08:38.686Z,20.60
2023-05-18T13:11:14.636Z,20.60
2023-05-18T13:14:01.381Z,21.00
2023-05-18T13:16:31.722Z,20.40
2023-05-18T13:19:04.912Z,20.00
2023-05-18T13:21:35.613Z,20.60
2023-05-18T13:24:05.965Z,20.90
2023-05-18T13:26:35.619Z,21.00
2023-05-18T13:29:05.619Z,21.30
2023-05-18T13:31:36.014Z,21.40
2023-05-18T13:34:07.251Z,21.20
2023-05-18T13:36:37.062Z,20.90
2023-05-18T13:39:07.267Z,20.00
2023-05-18T13:41:37.320Z,19.80
2023-05-18T13:44:07.100Z,19.40
2023-05-18T13:46:38.199Z,19.40
2023-05-18T13:49:09.436Z,19.00
2023-05-18T13:51:38.968Z,19.50
2023-05-18T13:54:08.879Z,19.80
2023-05-18T13:56:38.512Z,20.00
2023-05-18T13:59:08.453Z,20.10
2023-05-18T14:01:38.327Z,20.50
2023-05-18T14:04:09.643Z,20.70
2023-05-18T14:06:40.878Z,20.30
2023-05-18T14:09:10.891Z,20.30
2023-05-18T14:11:40.799Z,20.50
2023-05-18T14:14:10.778Z,20.00
2023-05-18T14:16:40.563Z,19.20
2023-05-18T14:19:11.877Z,19.70
2023-05-18T14:21:41.843Z,20.10
2023-05-18T14:24:12.661Z,20.30
2023-05-18T14:26:42.635Z,20.40
2023-05-18T14:29:12.515Z,19.70
2023-05-18T14:31:42.388Z,20.00
2023-05-18T14:34:13.604Z,20.30
2023-05-18T14:36:43.344Z,20.60
2023-05-18T14:39:13.223Z,20.70
2023-05-18T14:41:43.031Z,20.40
2023-05-18T14:44:13.649Z,19.90
2023-05-18T14:46:43.821Z,19.50
2023-05-18T14:49:14.899Z,19.20
2023-05-18T14:51:44.633Z,19.10
2023-05-18T14:54:14.497Z,19.60
2023-05-18T14:56:44.469Z,20.00
2023-05-18T14:59:15.632Z,19.60
2023-05-18T15:01:45.794Z,19.90
2023-05-18T15:04:17.460Z,19.80
2023-05-18T15:06:47.272Z,19.60
2023-05-18T15:09:17.267Z,19.60
2023-05-18T15:11:46.944Z,19.60
2023-05-18T15:14:16.789Z,19.70
2023-05-18T15:16:46.845Z,19.60
2023-05-18T15:19:17.909Z,19.00
2023-05-18T15:21:48.594Z,19.10
2023-05-18T15:24:18.463Z,19.40
2023-05-18T15:26:48.176Z,19.50
2023-05-18T15:29:18.022Z,19.50
2023-05-18T15:31:51.005Z,19.70
2023-05-18T15:34:22.439Z,19.70
2023-05-18T15:36:53.356Z,19.60
2023-05-18T15:39:23.211Z,19.40
2023-05-18T15:41:52.974Z,19.30
2023-05-18T15:44:22.796Z,19.00
2023-05-18T15:46:52.618Z,18.90
2023-05-18T15:49:25.445Z,19.00
2023-05-18T15:51:55.081Z,19.00
2023-05-18T15:54:24.911Z,19.00
2023-05-18T15:56:54.778Z,19.00
2023-05-18T15:59:24.612Z,19.00
2023-05-18T16:01:54.601Z,19.00
2023-05-18T16:04:25.808Z,18.90
2023-05-18T16:06:55.632Z,18.90
2023-05-18T16:09:25.530Z,18.80
2023-05-18T16:11:55.813Z,18.90
2023-05-18T16:14:25.504Z,18.60
2023-05-18T16:16:55.324Z,18.60
2023-05-18T16:19:26.578Z,18.60
2023-05-18T16:21:56.718Z,18.70
2023-05-18T16:24:26.315Z,18.60
2023-05-18T16:26:56.519Z,18.50
2023-05-18T16:29:26.102Z,18.50
2023-05-18T16:31:56.086Z,18.40
2023-05-18T16:34:27.459Z,18.30
2023-05-18T16:36:57.070Z,18.20
2023-05-18T16:39:27.386Z,18.10
2023-05-18T16:41:57.288Z,18.10
2023-05-18T16:44:27.153Z,18.10
2023-05-18T16:46:57.134Z,18.10
2023-05-18T16:49:28.957Z,18.20
2023-05-18T16:51:58.898Z,18.30
2023-05-18T16:54:28.796Z,18.30
2023-05-18T16:56:58.535Z,18.20
2023-05-18T16:59:28.634Z,18.30
2023-05-18T17:01:58.672Z,18.30
2023-05-18T17:04:29.621Z,18.30
2023-05-18T17:07:00.912Z,18.30
2023-05-18T17:09:31.191Z,18.00
2023-05-18T17:12:00.959Z,18.00
2023-05-18T17:14:30.775Z,17.80
2023-05-18T17:17:00.950Z,17.50
2023-05-18T17:19:31.912Z,17.50
2023-05-18T17:22:01.901Z,17.50
2023-05-18T17:24:31.804Z,17.60
2023-05-18T17:27:01.809Z,17.60
2023-05-18T17:29:32.041Z,17.50
2023-05-18T17:32:01.752Z,17.60
2023-05-18T17:34:32.809Z,17.40
2023-05-18T17:37:03.202Z,17.30
2023-05-18T17:39:33.088Z,17.20
2023-05-18T17:42:03.286Z,17.30
2023-05-18T17:44:32.831Z,17.20
2023-05-18T17:47:02.785Z,17.20
2023-05-18T17:49:33.854Z,17.10
2023-05-18T17:52:03.897Z,17.00
2023-05-18T17:54:33.750Z,16.90
2023-05-18T17:57:03.592Z,16.70
2023-05-18T17:59:33.588Z,16.80
2023-05-18T18:02:04.389Z,16.80
2023-05-18T18:04:35.558Z,16.70
2023-05-18T18:07:03.458Z,16.50
2023-05-18T18:09:33.319Z,16.50
2023-05-18T18:12:03.194Z,16.40
2023-05-18T18:14:33.057Z,16.50
2023-05-18T18:17:03.303Z,16.40
2023-05-18T18:19:32.987Z,16.30
2023-05-18T18:22:04.739Z,16.20
2023-05-18T18:24:34.634Z,16.10
2023-05-18T18:27:04.588Z,16.00
2023-05-18T18:29:34.443Z,15.90
2023-05-18T18:32:04.311Z,15.90
2023-05-18T18:34:34.162Z,15.70
2023-05-18T18:37:05.556Z,15.60
2023-05-18T18:39:35.439Z,15.50
2023-05-18T18:42:05.094Z,15.50
2023-05-18T18:44:34.928Z,15.40
2023-05-18T18:47:04.860Z,15.30
2023-05-18T18:49:34.920Z,15.20
2023-05-18T18:52:06.342Z,15.10
2023-05-18T18:54:37.536Z,15.10
2023-05-18T18:57:08.825Z,15.10
2023-05-18T18:59:38.347Z,14.90
2023-05-18T19:02:08.626Z,14.80
2023-05-18T19:04:38.725Z,14.90
2023-05-18T19:07:09.638Z,14.80
2023-05-18T19:09:41.552Z,14.70
2023-05-18T19:12:11.855Z,14.60
2023-05-18T19:14:41.640Z,14.50
2023-05-18T19:17:11.561Z,14.50
2023-05-18T19:19:41.349Z,14.40
2023-05-18T19:22:12.557Z,14.40
2023-05-18T19:24:42.114Z,14.30
2023-05-18T19:27:11.943Z,14.30
2023-05-18T19:29:41.874Z,14.20
2023-05-18T19:32:11.866Z,14.20
2023-05-18T19:34:41.633Z,14.20
2023-05-18T19:37:13.578Z,14.00
2023-05-18T19:39:43.419Z,14.00
2023-05-18T19:42:14.794Z,13.90
2023-05-18T19:44:44.699Z,13.90
2023-05-18T19:47:14.532Z,13.70
2023-05-18T19:49:44.541Z,13.70
2023-05-18T19:52:18.231Z,13.40
2023-05-18T19:54:48.135Z,13.40
2023-05-18T19:57:19.574Z,13.30
2023-05-18T19:59:49.494Z,13.30
2023-05-18T20:02:19.095Z,13.10
2023-05-18T20:04:49.025Z,13.20
2023-05-18T20:07:20.427Z,13.00
2023-05-18T20:09:53.009Z,13.00
2023-05-18T20:12:23.067Z,12.90
2023-05-18T20:14:52.958Z,12.80
2023-05-18T20:17:23.063Z,12.80
2023-05-18T20:19:53.464Z,12.80
2023-05-18T20:22:24.543Z,12.90
2023-05-18T20:24:54.904Z,12.80
2023-05-18T20:27:24.858Z,12.60
2023-05-18T20:29:55.982Z,12.60
2023-05-18T20:32:25.781Z,12.60
2023-05-18T20:34:55.793Z,12.60
2023-05-18T20:37:26.744Z,12.40
2023-05-18T20:39:58.573Z,12.30
2023-05-18T20:42:38.589Z,12.20
2023-05-18T20:45:07.216Z,12.20
2023-05-18T20:47:37.110Z,12.10
2023-05-18T20:50:07.400Z,12.10
2023-05-18T20:52:38.414Z,12.00
2023-05-18T20:55:09.342Z,12.00
2023-05-18T20:57:42.221Z,12.00
2023-05-18T21:00:13.163Z,11.90
2023-05-18T21:02:46.033Z,11.90
2023-05-18T21:05:16.707Z,11.80
2023-05-18T21:07:48.765Z,11.70
2023-05-18T21:10:18.652Z,11.70
2023-05-18T21:12:48.645Z,11.70
2023-05-18T21:15:18.506Z,11.60
2023-05-18T21:17:48.385Z,11.60
2023-05-18T21:20:18.454Z,11.40
2023-05-18T21:22:49.610Z,11.50
2023-05-18T21:25:19.590Z,11.30
2023-05-18T21:27:49.389Z,11.20
2023-05-18T21:30:19.590Z,11.20
2023-05-18T21:32:49.740Z,11.20
2023-05-18T21:35:19.518Z,11.20
2023-05-18T21:37:50.731Z,11.10
2023-05-18T21:40:20.587Z,11.00
2023-05-18T21:42:50.398Z,11.00
2023-05-18T21:45:22.401Z,11.00
2023-05-18T21:47:52.088Z,11.00
2023-05-18T21:50:21.643Z,10.90
2023-05-18T21:52:52.827Z,10.90
2023-05-18T21:55:22.568Z,10.90
2023-05-18T21:57:52.472Z,10.80
2023-05-18T22:00:22.223Z,10.70
2023-05-18T22:02:51.831Z,10.80
2023-05-18T22:05:21.586Z,10.70
2023-05-18T22:07:52.681Z,10.70
2023-05-18T22:10:22.616Z,10.60
2023-05-18T22:12:52.422Z,10.50
2023-05-18T22:15:22.673Z,10.50
2023-05-18T22:17:54.093Z,10.50
2023-05-18T22:20:23.927Z,10.50
2023-05-18T22:22:55.115Z,10.40
2023-05-18T22:25:25.828Z,10.40
2023-05-18T22:27:55.950Z,10.40
2023-05-18T22:30:27.766Z,10.40
2023-05-18T22:32:58.485Z,10.40
2023-05-18T22:35:28.109Z,10.30
2023-05-18T22:37:59.166Z,10.40
2023-05-18T22:40:29.102Z,10.40
2023-05-18T22:42:58.878Z,10.40
2023-05-18T22:45:28.646Z,10.50
2023-05-18T22:47:58.450Z,10.30
2023-05-18T22:50:28.491Z,10.40
2023-05-18T22:53:02.221Z,10.40
2023-05-18T22:55:32.675Z,10.30
2023-05-18T22:58:02.542Z,10.30
2023-05-18T23:00:32.348Z,10.10
2023-05-18T23:03:02.290Z,10.10
2023-05-18T23:05:32.593Z,10.10
2023-05-18T23:08:04.932Z,9.90
2023-05-18T23:10:34.717Z,10.00
2023-05-18T23:13:04.947Z,10.00
2023-05-18T23:15:34.508Z,10.00
2023-05-18T23:18:09.045Z,10.00
2023-05-18T23:20:39.519Z,10.00
2023-05-18T23:23:10.562Z,10.00
2023-05-18T23:25:40.318Z,10.00
2023-05-18T23:28:10.071Z,10.00
2023-05-18T23:30:39.885Z,10.10
2023-05-18T23:33:10.320Z,10.10
2023-05-18T23:35:42.992Z,10.10
2023-05-18T23:38:18.268Z,10.10
2023-05-18T23:40:48.506Z,10.10
2023-05-18T23:43:19.436Z,10.00
2023-05-18T23:45:50.273Z,10.00
2023-05-18T23:48:21.506Z,9.90
2023-05-18T23:50:53.802Z,9.90
2023-05-18T23:53:26.132Z,9.80
2023-05-18T23:55:57.150Z,9.80
2023-05-18T23:58:28.623Z,9.60
